createdAt,value
2023-02-11T00:03:58.817Z,10.04
2023-02-11T00:08:58.777Z,10.04
2023-02-11T00:13:58.781Z,10.10
2023-02-11T00:18:58.719Z,10.31
2023-02-11T00:23:58.708Z,10.10
2023-02-11T00:28:58.683Z,9.83
2023-02-11T00:33:58.666Z,9.88
2023-02-11T00:38:58.624Z,10.37
2023-02-11T00:43:58.559Z,9.88
2023-02-11T00:48:58.587Z,10.10
2023-02-11T00:53:58.546Z,10.04
2023-02-11T00:58:58.494Z,10.26
2023-02-11T01:03:58.451Z,10.31
2023-02-11T01:08:58.444Z,9.99
2023-02-11T01:13:58.394Z,10.37
2023-02-11T01:18:59.375Z,10.10
2023-02-11T01:23:58.347Z,9.83
2023-02-11T01:28:58.316Z,9.83
2023-02-11T01:33:58.289Z,10.15
2023-02-11T01:38:58.251Z,10.04
2023-02-11T01:43:58.185Z,10.04
2023-02-11T01:48:58.223Z,10.26
2023-02-11T01:53:58.137Z,10.04
2023-02-11T01:58:58.089Z,10.15
2023-02-11T02:03:58.112Z,10.31
2023-02-11T02:08:58.004Z,10.15
2023-02-11T02:13:57.953Z,9.83
2023-02-11T02:18:57.971Z,10.26
2023-02-11T02:23:57.910Z,9.88
2023-02-11T02:28:57.899Z,10.31
2023-02-11T02:33:57.885Z,10.10
2023-02-11T02:38:57.877Z,10.04
2023-02-11T02:43:57.848Z,10.15
2023-02-11T02:48:57.855Z,9.94
2023-02-11T02:53:57.828Z,10.26
2023-02-11T02:58:57.793Z,10.04
2023-02-11T03:03:57.777Z,10.04
2023-02-11T03:08:57.728Z,10.21
2023-02-11T03:13:57.714Z,10.04
2023-02-11T03:18:57.702Z,10.10
2023-02-11T03:23:57.679Z,10.04
2023-02-11T03:28:57.620Z,9.99
2023-02-11T03:33:57.602Z,10.26
2023-02-11T03:38:57.576Z,10.10
2023-02-11T03:43:57.549Z,10.31
2023-02-11T03:48:57.513Z,10.15
2023-02-11T03:53:57.480Z,10.21
2023-02-11T03:58:57.440Z,10.10
2023-02-11T04:03:57.429Z,10.15
2023-02-11T04:08:57.405Z,10.31
2023-02-11T04:13:57.332Z,10.31
2023-02-11T04:18:57.308Z,9.99
2023-02-11T04:23:57.321Z,9.99
2023-02-11T04:28:57.274Z,10.04
2023-02-11T04:33:57.235Z,10.37
2023-02-11T04:38:57.206Z,10.31
2023-02-11T04:43:57.176Z,10.04
2023-02-11T04:48:57.212Z,10.10
2023-02-11T04:53:57.109Z,10.10
2023-02-11T04:58:57.121Z,9.88
2023-02-11T05:03:57.108Z,10.10
2023-02-11T05:08:57.047Z,10.04
2023-02-11T05:13:56.984Z,10.26
2023-02-11T05:18:56.955Z,9.83
2023-02-11T05:23:56.897Z,10.31
2023-02-11T05:28:56.886Z,10.21
2023-02-11T05:33:56.877Z,10.10
2023-02-11T05:38:56.821Z,10.04
2023-02-11T05:43:56.817Z,10.31
2023-02-11T05:48:56.835Z,9.99
2023-02-11T05:53:56.805Z,10.04
2023-02-11T05:58:56.753Z,10.31
2023-02-11T06:03:56.741Z,10.04
2023-02-11T06:08:56.706Z,10.31
2023-02-11T06:13:56.658Z,10.10
2023-02-11T06:18:56.639Z,10.47
2023-02-11T06:23:56.619Z,10.37
2023-02-11T06:28:56.612Z,10.04
2023-02-11T06:33:56.549Z,10.26
2023-02-11T06:38:56.560Z,10.10
2023-02-11T06:43:56.520Z,10.10
2023-02-11T06:48:56.550Z,10.15
2023-02-11T06:53:56.469Z,10.15
2023-02-11T06:58:56.459Z,10.26
2023-02-11T07:03:56.424Z,10.37
2023-02-11T07:08:56.450Z,10.15
2023-02-11T07:13:56.424Z,9.99
2023-02-11T07:18:56.349Z,10.31
2023-02-11T07:23:56.399Z,9.99
2023-02-11T07:28:56.329Z,9.99
2023-02-11T07:33:56.307Z,10.31
2023-02-11T07:38:56.293Z,10.26
2023-02-11T07:43:56.271Z,9.99
2023-02-11T07:48:56.382Z,10.31
2023-02-11T07:53:56.229Z,9.83
2023-02-11T07:58:56.202Z,10.31
2023-02-11T08:03:56.195Z,10.15
2023-02-11T08:08:56.234Z,10.21
2023-02-11T08:13:56.097Z,10.58
2023-02-11T08:18:56.100Z,10.31
2023-02-11T08:23:56.002Z,10.04
2023-02-11T08:28:55.997Z,9.99
2023-02-11T08:33:55.968Z,10.21
2023-02-11T08:39:08.548Z,10.42
2023-02-11T08:43:55.915Z,10.42
2023-02-11T08:48:55.913Z,10.31
2023-02-11T08:53:55.865Z,10.04
2023-02-11T08:58:55.858Z,10.37
2023-02-11T09:03:55.813Z,10.04
2023-02-11T09:08:55.799Z,10.10
2023-02-11T09:13:55.761Z,9.99
2023-02-11T09:18:55.707Z,10.31
2023-02-11T09:23:55.684Z,10.37
2023-02-11T09:28:55.674Z,10.04
2023-02-11T09:33:55.645Z,10.31
2023-02-11T09:38:55.622Z,10.31
2023-02-11T09:43:55.599Z,10.26
2023-02-11T09:48:58.196Z,10.15
2023-02-11T09:53:55.501Z,10.15
2023-02-11T09:58:55.481Z,10.21
2023-02-11T10:03:55.505Z,10.10
2023-02-11T10:08:55.440Z,10.26
2023-02-11T10:13:55.441Z,10.26
2023-02-11T10:18:55.410Z,10.15
2023-02-11T10:23:55.374Z,10.47
2023-02-11T10:28:55.346Z,10.47
2023-02-11T10:33:55.323Z,10.26
2023-02-11T10:38:55.299Z,10.58
2023-02-11T10:43:55.264Z,10.15
2023-02-11T10:48:55.261Z,10.31
2023-02-11T10:53:55.242Z,10.21
2023-02-11T10:58:55.209Z,10.31
2023-02-11T11:03:55.196Z,10.26
2023-02-11T11:08:55.165Z,10.47
2023-02-11T11:13:55.146Z,10.31
2023-02-11T11:18:55.112Z,10.04
2023-02-11T11:23:55.076Z,10.26
2023-02-11T11:28:55.040Z,10.37
2023-02-11T11:33:55.003Z,10.26
2023-02-11T11:38:54.967Z,10.63
2023-02-11T11:43:54.954Z,10.26
2023-02-11T11:48:54.933Z,10.21
2023-02-11T11:53:54.918Z,10.04
2023-02-11T11:58:54.926Z,10.74
2023-02-11T12:03:54.884Z,10.26
2023-02-11T12:08:54.861Z,10.47
2023-02-11T12:13:54.799Z,10.04
2023-02-11T12:18:54.788Z,10.21
2023-02-11T12:23:54.785Z,10.47
2023-02-11T12:28:54.767Z,10.58
2023-02-11T12:33:54.718Z,10.21
2023-02-11T12:38:54.671Z,10.58
2023-02-11T12:43:54.617Z,10.37
2023-02-11T12:48:54.603Z,10.47
2023-02-11T12:53:54.583Z,10.53
2023-02-11T12:58:54.553Z,10.26
2023-02-11T13:03:54.507Z,10.58
2023-02-11T13:08:54.468Z,10.37
2023-02-11T13:13:54.462Z,10.53
2023-02-11T13:18:54.434Z,10.53
2023-02-11T13:23:54.373Z,10.53
2023-02-11T13:28:54.367Z,10.21
2023-02-11T13:33:54.299Z,10.58
2023-02-11T13:38:54.248Z,10.47
2023-02-11T13:43:54.240Z,10.31
2023-02-11T13:48:54.239Z,10.37
2023-02-11T13:53:54.191Z,10.26
2023-02-11T13:58:54.172Z,10.47
2023-02-11T14:03:54.123Z,10.42
2023-02-11T14:08:54.076Z,10.74
2023-02-11T14:13:54.029Z,10.47
2023-02-11T14:18:54.099Z,10.63
2023-02-11T14:23:53.923Z,10.69
2023-02-11T14:28:53.884Z,10.53
2023-02-11T14:33:53.980Z,10.74
2023-02-11T14:38:53.846Z,10.37
2023-02-11T14:43:53.842Z,10.63
2023-02-11T14:48:53.810Z,10.26
2023-02-11T14:53:53.760Z,10.42
2023-02-11T14:58:53.722Z,10.47
2023-02-11T15:03:53.684Z,10.58
2023-02-11T15:08:53.645Z,10.69
2023-02-11T15:13:55.445Z,10.42
2023-02-11T15:18:53.572Z,10.21
2023-02-11T15:23:53.535Z,10.63
2023-02-11T15:28:53.506Z,10.31
2023-02-11T15:33:53.481Z,10.47
2023-02-11T15:38:53.415Z,10.53
2023-02-11T15:43:53.386Z,10.47
2023-02-11T15:48:53.355Z,10.53
2023-02-11T15:53:53.327Z,10.47
2023-02-11T15:58:53.305Z,10.42
2023-02-11T16:03:53.358Z,10.69
2023-02-11T16:08:53.250Z,10.63
2023-02-11T16:13:53.212Z,10.63
2023-02-11T16:19:04.203Z,10.37
2023-02-11T16:23:53.170Z,10.42
2023-02-11T16:28:53.141Z,10.47
2023-02-11T16:33:53.098Z,10.63
2023-02-11T16:38:53.059Z,10.47
2023-02-11T16:43:53.036Z,10.47
2023-02-11T16:48:52.994Z,10.63
2023-02-11T16:53:52.968Z,10.47
2023-02-11T16:58:52.937Z,10.69
2023-02-11T17:03:52.893Z,10.58
2023-02-11T17:08:52.859Z,10.26
2023-02-11T17:13:52.820Z,10.80
2023-02-11T17:18:52.795Z,10.37
2023-02-11T17:23:52.772Z,10.42
2023-02-11T17:28:52.731Z,10.63
2023-02-11T17:33:52.721Z,10.47
2023-02-11T17:38:52.701Z,10.63
2023-02-11T17:43:52.629Z,10.63
2023-02-11T17:48:52.584Z,10.85
2023-02-11T17:53:52.560Z,10.63
2023-02-11T17:58:52.535Z,10.74
2023-02-11T18:03:52.498Z,11.01
2023-02-11T18:08:52.467Z,10.42
2023-02-11T18:13:52.420Z,10.80
2023-02-11T18:18:52.385Z,10.53
2023-02-11T18:23:52.350Z,10.58
2023-02-11T18:28:54.960Z,10.80
2023-02-11T18:33:52.278Z,10.74
2023-02-11T18:38:52.244Z,10.90
2023-02-11T18:43:54.152Z,10.69
2023-02-11T18:48:54.961Z,10.42
2023-02-11T18:53:52.151Z,10.85
2023-02-11T18:58:52.164Z,10.90
2023-02-11T19:03:52.134Z,10.63
2023-02-11T19:08:52.093Z,10.69
2023-02-11T19:13:52.060Z,10.69
2023-02-11T19:18:52.012Z,10.42
2023-02-11T19:23:52.025Z,10.53
2023-02-11T19:28:51.988Z,10.63
2023-02-11T19:33:51.950Z,10.90
2023-02-11T19:38:51.910Z,10.96
2023-02-11T19:43:51.884Z,10.90
2023-02-11T19:48:51.851Z,10.90
2023-02-11T19:53:51.841Z,10.63
2023-02-11T19:58:51.786Z,10.63
2023-02-11T20:03:51.783Z,10.58
2023-02-11T20:08:51.747Z,11.06
2023-02-11T20:13:51.722Z,10.47
2023-02-11T20:18:51.659Z,10.90
2023-02-11T20:23:51.619Z,11.06
2023-02-11T20:28:51.585Z,10.47
2023-02-11T20:33:51.553Z,10.90
2023-02-11T20:38:51.499Z,10.53
2023-02-11T20:43:51.467Z,10.80
2023-02-11T20:48:51.425Z,10.42
2023-02-11T20:53:51.442Z,10.58
2023-02-11T20:58:51.377Z,10.96
2023-02-11T21:03:51.335Z,10.63
2023-02-11T21:08:51.290Z,10.69
2023-02-11T21:13:51.254Z,10.85
2023-02-11T21:18:51.217Z,10.90
2023-02-11T21:23:51.187Z,10.58
2023-02-11T21:28:51.137Z,10.63
2023-02-11T21:33:51.106Z,11.01
2023-02-11T21:38:51.099Z,11.01
2023-02-11T21:43:51.068Z,10.90
2023-02-11T21:48:51.029Z,11.12
2023-02-11T21:53:51.039Z,11.17
2023-02-11T21:58:50.934Z,10.90
2023-02-11T22:03:50.892Z,10.96
2023-02-11T22:08:50.871Z,10.63
2023-02-11T22:13:50.837Z,10.69
2023-02-11T22:18:50.770Z,10.85
2023-02-11T22:23:50.785Z,11.39
2023-02-11T22:28:50.735Z,10.69
2023-02-11T22:33:50.713Z,10.85
2023-02-11T22:38:50.679Z,11.06
2023-02-11T22:43:50.617Z,10.58
2023-02-11T22:48:50.593Z,11.01
2023-02-11T22:53:50.535Z,11.01
2023-02-11T22:58:50.495Z,10.96
2023-02-11T23:03:50.466Z,11.33
2023-02-11T23:08:50.423Z,11.33
2023-02-11T23:13:50.389Z,11.17
2023-02-11T23:18:50.353Z,11.28
2023-02-11T23:23:50.320Z,11.28
2023-02-11T23:28:50.307Z,11.33
2023-02-11T23:33:50.298Z,10.69
2023-02-11T23:38:50.284Z,10.69
2023-02-11T23:43:50.305Z,10.63
2023-02-11T23:48:50.268Z,10.90
2023-02-11T23:53:50.252Z,10.58
2023-02-11T23:58:50.192Z,10.96
